Time;durP1;ratioP1;P1;durP2;ratioP2;P2;SDS_P1;SDS_P2;PMS_P1;PMS_P2;Temp;Humidity;BMP_temperature;BMP_pressure;BME280_temperature;BME280_humidity;BME280_pressure;Samples;Min_cycle;Max_cycle;Signal;HPM_P1;HPM_P2
2022/10/16 00:01:29;;;;;;;0.00;0.00;;;;;;;11.67;100.00;100955.00;5003731;28;20483;-72
2022/10/16 00:03:56;;;;;;;0.10;0.10;;;;;;;11.63;100.00;100946.31;5004740;28;20030;-74
2022/10/16 00:06:22;;;;;;;0.10;0.10;;;;;;;11.66;100.00;100945.22;5006307;28;20524;-73
2022/10/16 00:08:48;;;;;;;0.00;0.00;;;;;;;11.48;100.00;100958.31;5001982;28;20101;-74
2022/10/16 00:11:20;;;;;;;0.10;0.10;;;;;;;11.67;100.00;100963.06;5003426;28;20571;-76
2022/10/16 00:13:46;;;;;;;0.10;0.10;;;;;;;11.33;100.00;100928.16;5004768;28;20498;-71
2022/10/16 00:16:12;;;;;;;0.10;0.10;;;;;;;11.40;100.00;100950.84;5003118;28;20054;-72
2022/10/16 00:18:38;;;;;;;0.10;0.10;;;;;;;11.46;100.00;100949.53;5004801;28;20114;-72
2022/10/16 00:21:09;;;;;;;0.00;0.00;;;;;;;11.45;100.00;100956.72;5011016;28;20021;-71
2022/10/16 00:23:35;;;;;;;0.00;0.00;;;;;;;11.50;100.00;100953.69;5006701;28;20080;-72
2022/10/16 00:26:03;;;;;;;0.10;0.10;;;;;;;11.29;100.00;100924.00;5016677;28;20029;-72
2022/10/16 00:28:29;;;;;;;0.10;0.10;;;;;;;11.15;100.00;100946.56;5010877;28;20029;-72
2022/10/16 00:30:55;;;;;;;0.10;0.10;;;;;;;11.37;100.00;100957.34;5004658;28;20040;-72
2022/10/16 00:33:20;;;;;;;0.00;0.00;;;;;;;11.25;100.00;100943.03;5021790;28;20282;-72
2022/10/16 00:35:46;;;;;;;0.10;0.10;;;;;;;11.32;100.00;100951.47;5005757;28;20038;-72
2022/10/16 00:38:11;;;;;;;0.10;0.10;;;;;;;11.21;100.00;100943.41;5004525;28;20065;-72
2022/10/16 00:40:37;;;;;;;0.00;0.00;;;;;;;11.23;100.00;100965.66;4994098;28;20033;-73
2022/10/16 00:43:02;;;;;;;0.00;0.00;;;;;;;11.08;100.00;100965.03;5002867;28;20072;-72
2022/10/16 00:45:27;;;;;;;0.10;0.10;;;;;;;11.45;100.00;100961.25;5004550;28;20026;-75
2022/10/16 00:47:55;;;;;;;0.10;0.10;;;;;;;11.34;100.00;100960.25;5021758;28;20053;-72
2022/10/16 00:50:27;;;;;;;0.00;0.00;;;;;;;11.27;100.00;100963.56;5007148;28;20034;-72
2022/10/16 00:52:53;;;;;;;0.10;0.10;;;;;;;11.28;100.00;100968.81;5007490;28;20240;-72
2022/10/16 00:55:18;;;;;;;0.00;0.00;;;;;;;11.12;100.00;100941.44;5003007;28;20034;-72
2022/10/16 00:57:45;;;;;;;0.10;0.10;;;;;;;11.23;100.00;100966.50;5000897;28;20097;-72
2022/10/16 01:00:14;;;;;;;0.10;0.10;;;;;;;11.31;100.00;100959.66;5009277;28;20030;-72
2022/10/16 01:02:39;;;;;;;0.00;0.00;;;;;;;11.23;100.00;100947.69;5004501;28;20044;-76
2022/10/16 01:05:05;;;;;;;0.00;0.00;;;;;;;11.31;100.00;100949.75;4985791;28;20397;-72
2022/10/16 01:07:40;;;;;;;0.10;0.10;;;;;;;11.09;100.00;100935.31;4993120;28;20072;-72
2022/10/16 01:10:35;;;;;;;0.10;0.10;;;;;;;11.39;100.00;100963.44;5023120;28;20057;-73
2022/10/16 01:13:02;;;;;;;;;;;;;;;11.44;100.00;100957.69;4984620;28;20217;-72
2022/10/16 01:15:34;;;;;;;0.05;0.05;;;;;;;11.24;100.00;100929.75;5004784;28;19953;-72
2022/10/16 01:18:14;;;;;;;0.10;0.10;;;;;;;11.43;100.00;100949.78;5001680;28;20052;-73
2022/10/16 01:21:02;;;;;;;0.03;0.03;;;;;;;11.50;100.00;100951.84;5008455;28;20075;-72
2022/10/16 01:23:48;;;;;;;0.00;0.00;;;;;;;11.31;100.00;100944.38;5002649;28;20030;-72
2022/10/16 01:26:41;;;;;;;0.00;0.00;;;;;;;11.43;100.00;100958.69;4996577;28;20100;-73
2022/10/16 01:29:15;;;;;;;0.10;0.10;;;;;;;11.46;100.00;100962.97;5004858;28;20057;-72
2022/10/16 01:31:44;;;;;;;0.00;0.00;;;;;;;11.58;100.00;100951.22;5008131;28;20091;-72
2022/10/16 01:34:15;;;;;;;0.00;0.00;;;;;;;11.54;100.00;100953.31;5003328;28;20036;-72
2022/10/16 01:37:06;;;;;;;0.10;0.10;;;;;;;11.40;100.00;100946.34;5020296;28;20030;-72
2022/10/16 01:39:34;;;;;;;0.00;0.00;;;;;;;11.52;100.00;100949.03;4995885;28;20043;-71
2022/10/16 01:42:13;;;;;;;0.10;0.10;;;;;;;11.57;100.00;100945.97;4995757;28;20025;-74
2022/10/16 01:44:39;;;;;;;0.10;0.10;;;;;;;11.52;100.00;100940.97;5003779;28;20037;-73
2022/10/16 01:47:05;;;;;;;0.10;0.10;;;;;;;11.35;100.00;100928.88;5000616;28;20030;-72
2022/10/16 01:49:33;;;;;;;0.10;0.10;;;;;;;11.65;100.00;100962.34;5018797;28;20400;-73
2022/10/16 01:52:00;;;;;;;0.00;0.00;;;;;;;11.52;100.00;100959.81;5008393;28;20064;-72
2022/10/16 01:54:27;;;;;;;0.10;0.10;;;;;;;11.64;100.00;100968.72;4987622;28;20026;-72
2022/10/16 01:56:54;;;;;;;0.10;0.10;;;;;;;11.61;100.00;100969.78;5004939;28;20372;-72
2022/10/16 01:59:20;;;;;;;0.05;0.05;;;;;;;11.58;100.00;100950.38;4988296;28;20040;-73
2022/10/16 02:01:49;;;;;;;0.10;0.10;;;;;;;11.71;100.00;100959.16;5018475;28;20123;-71
2022/10/16 02:04:23;;;;;;;0.08;0.08;;;;;;;11.44;100.00;100930.81;5004996;28;20033;-72
2022/10/16 02:06:48;;;;;;;0.10;0.10;;;;;;;11.58;100.00;100963.81;5009166;28;20437;-72
2022/10/16 02:09:15;;;;;;;0.00;0.00;;;;;;;11.44;100.00;100955.00;4987977;28;20045;-73
2022/10/16 02:11:40;;;;;;;0.10;0.10;;;;;;;11.54;100.00;100953.31;5008033;28;20037;-72
2022/10/16 02:14:06;;;;;;;0.10;0.10;;;;;;;11.60;100.00;100975.31;5001955;28;20790;-71
2022/10/16 02:16:41;;;;;;;0.10;0.10;;;;;;;11.66;100.00;100975.66;5003630;28;20072;-73
2022/10/16 02:19:07;;;;;;;0.00;0.00;;;;;;;11.82;100.00;100961.84;5005693;28;20578;-77
2022/10/16 02:21:53;;;;;;;0.00;0.00;;;;;;;11.85;100.00;100975.03;5010767;28;20042;-73
2022/10/16 02:24:24;;;;;;;0.10;0.10;;;;;;;11.69;100.00;100963.78;5005526;28;20038;-72
2022/10/16 02:27:01;;;;;;;0.10;0.10;;;;;;;11.82;100.00;100969.91;5005067;28;20606;-73
2022/10/16 02:29:27;;;;;;;0.00;0.00;;;;;;;11.93;100.00;100978.91;5004459;28;20038;-72
2022/10/16 02:32:01;;;;;;;0.00;0.00;;;;;;;11.82;100.00;100945.69;5006965;28;20068;-76
2022/10/16 02:34:28;;;;;;;0.00;0.00;;;;;;;11.65;100.00;100949.75;5001835;28;20030;-76
2022/10/16 02:36:54;;;;;;;0.00;0.00;;;;;;;11.77;100.00;100960.50;4988547;28;20026;-75
2022/10/16 02:39:20;;;;;;;0.10;0.10;;;;;;;11.77;100.00;100958.66;4991261;28;20044;-74
2022/10/16 02:41:45;;;;;;;0.00;0.00;;;;;;;11.69;100.00;100921.63;5007642;28;20033;-73
2022/10/16 02:44:11;;;;;;;0.00;0.00;;;;;;;11.75;100.00;100959.78;5006857;28;20328;-74
2022/10/16 02:46:36;;;;;;;0.00;0.00;;;;;;;11.71;100.00;100967.22;5007884;28;20602;-73
2022/10/16 02:49:01;;;;;;;0.00;0.00;;;;;;;11.57;100.00;100944.13;5007716;28;20531;-73
2022/10/16 02:51:27;;;;;;;0.03;0.03;;;;;;;11.77;100.00;100972.09;5012051;28;20487;-74
2022/10/16 02:53:52;;;;;;;0.10;0.10;;;;;;;11.50;100.00;100956.38;5009691;28;20630;-72
2022/10/16 02:56:17;;;;;;;0.00;0.00;;;;;;;11.63;100.00;100975.91;5009648;28;20034;-73
2022/10/16 02:58:43;;;;;;;0.10;0.10;;;;;;;11.23;100.00;100918.13;5007885;28;20072;-71
2022/10/16 03:01:08;;;;;;;0.00;0.00;;;;;;;11.52;100.00;100954.41;5004733;28;20502;-72
2022/10/16 03:03:33;;;;;;;0.10;0.10;;;;;;;11.29;100.00;100940.94;5005591;28;20033;-73
2022/10/16 03:05:59;;;;;;;0.10;0.10;;;;;;;11.65;100.00;100973.94;5009211;28;20431;-75
2022/10/16 03:08:25;;;;;;;0.10;0.10;;;;;;;11.51;100.00;100963.47;5012951;28;20080;-73
2022/10/16 03:10:51;;;;;;;0.10;0.10;;;;;;;11.51;100.00;100979.59;5002835;28;20064;-72
2022/10/16 03:13:16;;;;;;;0.00;0.00;;;;;;;11.39;100.00;100950.00;5006770;28;20511;-72
2022/10/16 03:15:41;;;;;;;0.10;0.10;;;;;;;11.35;100.00;100953.91;5006367;28;20335;-72
2022/10/16 03:18:07;;;;;;;0.00;0.00;;;;;;;11.44;100.00;100975.69;5008697;28;20034;-73
2022/10/16 03:20:32;;;;;;;0.10;0.10;;;;;;;11.34;100.00;100983.63;5006504;28;20449;-73
2022/10/16 03:22:57;;;;;;;0.00;0.00;;;;;;;11.25;100.00;100988.72;5005898;28;20078;-72
2022/10/16 03:25:22;;;;;;;0.10;0.10;;;;;;;11.22;100.00;100993.50;5021276;28;20038;-73
2022/10/16 03:27:48;;;;;;;0.00;0.00;;;;;;;11.22;100.00;100980.91;5006434;28;20036;-73
2022/10/16 03:30:13;;;;;;;0.10;0.10;;;;;;;11.12;100.00;100993.38;5004615;28;20037;-73
2022/10/16 03:32:38;;;;;;;0.00;0.00;;;;;;;11.15;100.00;101001.16;5003116;28;20121;-72
2022/10/16 03:35:04;;;;;;;0.10;0.10;;;;;;;11.16;100.00;100978.69;5005728;28;20035;-73
2022/10/16 03:37:29;;;;;;;0.10;0.10;;;;;;;11.25;100.00;101002.16;5007883;28;20041;-73
2022/10/16 03:39:55;;;;;;;0.10;0.10;;;;;;;11.16;100.00;100994.81;5008317;28;20036;-73
2022/10/16 03:42:20;;;;;;;0.00;0.00;;;;;;;11.17;100.00;101006.44;5007808;28;20029;-73
2022/10/16 03:44:45;;;;;;;0.10;0.10;;;;;;;11.22;100.00;101010.47;5004326;28;20125;-72
2022/10/16 03:47:11;;;;;;;0.10;0.10;;;;;;;11.27;100.00;101002.03;5009040;28;20060;-73
2022/10/16 03:49:36;;;;;;;0.00;0.00;;;;;;;11.10;100.00;101006.91;5006636;28;20045;-73
2022/10/16 03:52:01;;;;;;;0.00;0.00;;;;;;;11.14;100.00;100998.59;5005252;28;20033;-72
2022/10/16 03:54:26;;;;;;;0.10;0.10;;;;;;;11.06;100.00;100996.53;5007862;28;20036;-72
2022/10/16 03:56:52;;;;;;;0.00;0.00;;;;;;;10.98;100.00;100994.44;5004821;28;20096;-73
2022/10/16 03:59:17;;;;;;;0.00;0.00;;;;;;;11.11;100.00;100999.72;5001836;28;20476;-73
2022/10/16 04:01:42;;;;;;;0.10;0.10;;;;;;;11.10;100.00;101003.38;5004370;28;20049;-73
2022/10/16 04:04:08;;;;;;;0.00;0.00;;;;;;;10.88;100.00;100978.16;5002999;28;20058;-73
2022/10/16 04:06:33;;;;;;;0.00;0.00;;;;;;;11.24;100.00;101019.28;5004329;28;20037;-73
2022/10/16 04:08:58;;;;;;;0.00;0.00;;;;;;;11.20;100.00;100998.13;5012082;28;20025;-72
2022/10/16 04:11:24;;;;;;;0.10;0.10;;;;;;;11.09;100.00;101013.25;5019160;28;20062;-72
2022/10/16 04:13:49;;;;;;;0.00;0.00;;;;;;;11.38;100.00;101015.50;5007310;28;20036;-72
2022/10/16 04:16:14;;;;;;;0.10;0.10;;;;;;;10.98;100.00;100997.13;5002762;28;20041;-73
2022/10/16 04:18:40;;;;;;;0.10;0.10;;;;;;;10.96;100.00;101001.75;5014061;28;20120;-71
2022/10/16 04:21:06;;;;;;;0.00;0.00;;;;;;;11.13;100.00;101021.91;5007378;28;20029;-71
2022/10/16 04:23:31;;;;;;;0.10;0.10;;;;;;;11.08;100.00;101035.72;5006019;28;20042;-71
2022/10/16 04:25:56;;;;;;;0.00;0.00;;;;;;;11.32;100.00;101029.41;5000942;28;20125;-71
2022/10/16 04:28:21;;;;;;;0.00;0.00;;;;;;;11.21;100.00;101021.34;5007326;28;20074;-73
2022/10/16 04:30:47;;;;;;;0.10;0.10;;;;;;;11.36;100.00;101035.44;5011351;28;20075;-73
2022/10/16 04:33:12;;;;;;;0.10;0.10;;;;;;;11.35;100.00;101033.72;5004229;28;20077;-71
2022/10/16 04:35:38;;;;;;;0.00;0.00;;;;;;;11.28;100.00;101043.22;5001959;28;20022;-73
2022/10/16 04:38:03;;;;;;;0.10;0.10;;;;;;;11.26;100.00;101024.50;5007572;28;20022;-70
2022/10/16 04:40:32;;;;;;;0.10;0.10;;;;;;;11.35;100.00;101039.09;5011944;28;20052;-71
2022/10/16 04:42:57;;;;;;;0.00;0.00;;;;;;;11.39;100.00;101038.72;5003789;28;20030;-71
2022/10/16 04:45:23;;;;;;;0.10;0.10;;;;;;;11.22;100.00;101026.59;5005290;28;20376;-72
2022/10/16 04:47:48;;;;;;;0.10;0.10;;;;;;;11.22;100.00;101048.09;5002937;28;20041;-71
2022/10/16 04:50:13;;;;;;;0.10;0.10;;;;;;;11.23;100.00;101040.91;5008225;28;20507;-71
2022/10/16 04:52:39;;;;;;;0.08;0.08;;;;;;;11.25;100.00;101047.84;5008710;28;20117;-72
2022/10/16 04:55:05;;;;;;;0.00;0.00;;;;;;;11.23;100.00;101038.22;5004956;28;20026;-71
2022/10/16 04:57:30;;;;;;;0.00;0.00;;;;;;;11.25;100.00;101047.84;4999459;28;20108;-72
2022/10/16 04:59:55;;;;;;;0.00;0.00;;;;;;;11.30;100.00;101065.47;5003645;28;20544;-73
2022/10/16 05:02:21;;;;;;;0.00;0.00;;;;;;;11.13;100.00;101048.78;4998989;28;20499;-71
2022/10/16 05:04:46;;;;;;;0.00;0.00;;;;;;;11.07;100.00;101049.28;5010921;28;20048;-72
2022/10/16 05:07:12;;;;;;;0.10;0.10;;;;;;;11.05;100.00;101064.66;5007911;28;20053;-71
2022/10/16 05:09:37;;;;;;;0.00;0.00;;;;;;;11.04;100.00;101076.38;5004494;28;20045;-72
2022/10/16 05:12:03;;;;;;;0.00;0.00;;;;;;;11.10;100.00;101067.88;5010560;28;20527;-72
2022/10/16 05:14:28;;;;;;;0.10;0.10;;;;;;;11.20;100.00;101066.16;5009354;28;20033;-73
2022/10/16 05:16:54;;;;;;;0.10;0.10;;;;;;;11.00;100.00;101054.25;5003174;28;20029;-74
2022/10/16 05:19:19;;;;;;;0.10;0.10;;;;;;;11.12;100.00;101075.78;5018269;28;20037;-72
2022/10/16 05:21:44;;;;;;;0.00;0.00;;;;;;;11.06;100.00;101083.34;5009177;28;20033;-72
2022/10/16 05:24:10;;;;;;;0.00;0.00;;;;;;;11.04;100.00;101087.97;5012144;28;20423;-74
2022/10/16 05:26:35;;;;;;;0.10;0.10;;;;;;;11.12;100.00;101102.66;4987549;28;20076;-72
2022/10/16 05:29:00;;;;;;;0.10;0.10;;;;;;;11.05;100.00;101102.28;5006908;28;20156;-73
2022/10/16 05:31:26;;;;;;;0.10;0.10;;;;;;;11.09;100.00;101109.16;5001011;28;20029;-72
2022/10/16 05:33:51;;;;;;;0.10;0.10;;;;;;;10.89;100.00;101092.69;5000794;28;20032;-72
2022/10/16 05:36:18;;;;;;;0.00;0.00;;;;;;;11.04;100.00;101106.78;5008110;28;20052;-73
2022/10/16 05:38:43;;;;;;;0.00;0.00;;;;;;;11.04;100.00;101116.69;5011841;28;20044;-72
2022/10/16 05:41:10;;;;;;;0.10;0.10;;;;;;;11.02;100.00;101111.41;4987634;28;20022;-74
2022/10/16 05:43:35;;;;;;;0.10;0.10;;;;;;;11.06;100.00;101126.34;5019914;28;20029;-73
2022/10/16 05:46:04;;;;;;;0.00;0.00;;;;;;;11.10;100.00;101113.56;5006520;28;20040;-73
2022/10/16 05:48:29;;;;;;;0.10;0.10;;;;;;;11.03;100.00;101112.28;5000182;28;20041;-72
2022/10/16 05:51:06;;;;;;;0.05;0.05;;;;;;;10.95;100.00;101137.06;5002949;28;20041;-73
2022/10/16 05:53:33;;;;;;;0.10;0.10;;;;;;;11.04;100.00;101146.25;5002307;28;20388;-72
2022/10/16 05:55:58;;;;;;;0.10;0.10;;;;;;;11.03;100.00;101147.22;4990103;28;20028;-73
2022/10/16 05:58:24;;;;;;;0.10;0.10;;;;;;;11.08;100.00;101150.44;5009195;28;20030;-73
2022/10/16 06:01:00;;;;;;;0.05;0.05;;;;;;;10.98;100.00;101160.13;5004001;28;20044;-73
2022/10/16 06:03:26;;;;;;;0.15;0.15;;;;;;;10.79;100.00;101146.22;5004685;28;20033;-73
2022/10/16 06:05:51;;;;;;;0.00;0.00;;;;;;;10.95;100.00;101167.44;5006956;28;20034;-73
2022/10/16 06:08:18;;;;;;;0.10;0.10;;;;;;;10.89;100.00;101167.91;4991561;28;20025;-73
2022/10/16 06:10:44;;;;;;;0.10;0.10;;;;;;;11.06;100.00;101184.63;5017430;28;20132;-73
2022/10/16 06:13:10;;;;;;;0.10;0.10;;;;;;;10.78;100.00;101160.63;5006957;28;20683;-72
2022/10/16 06:15:35;;;;;;;0.10;0.10;;;;;;;11.00;100.00;101182.38;5006799;28;20021;-73
2022/10/16 06:18:01;;;;;;;0.10;0.10;;;;;;;11.02;100.00;101188.50;4992079;28;20564;-73
2022/10/16 06:20:26;;;;;;;0.00;0.00;;;;;;;10.73;100.00;101170.00;5001791;28;20029;-74
2022/10/16 06:22:51;;;;;;;0.10;0.10;;;;;;;10.67;100.00;101155.22;5006297;28;20030;-74
2022/10/16 06:25:16;;;;;;;0.05;0.05;;;;;;;10.69;100.00;101182.81;5021786;28;20381;-73
2022/10/16 06:27:42;;;;;;;0.10;0.10;;;;;;;10.74;100.00;101187.84;5004497;28;20034;-73
2022/10/16 06:30:08;;;;;;;0.08;0.08;;;;;;;10.75;100.00;101184.19;5005579;28;20060;-73
2022/10/16 06:32:33;;;;;;;0.10;0.10;;;;;;;10.69;100.00;101193.56;5006569;28;20033;-72
2022/10/16 06:34:58;;;;;;;0.10;0.10;;;;;;;10.70;100.00;101178.28;5010355;28;20109;-72
2022/10/16 06:37:24;;;;;;;0.00;0.00;;;;;;;10.73;100.00;101192.34;5008249;28;20133;-72
2022/10/16 06:39:52;;;;;;;0.00;0.00;;;;;;;10.73;100.00;101192.34;5005276;28;20483;-72
2022/10/16 06:42:17;;;;;;;0.10;0.10;;;;;;;10.78;100.00;101216.19;5005901;28;20141;-72
2022/10/16 06:44:42;;;;;;;0.10;0.10;;;;;;;10.73;100.00;101219.19;5004571;28;20581;-72
2022/10/16 06:47:07;;;;;;;0.05;0.05;;;;;;;10.84;100.00;101220.25;5004286;28;20110;-73
2022/10/16 06:49:33;;;;;;;0.00;0.00;;;;;;;10.73;100.00;101196.88;5007149;28;20038;-72
2022/10/16 06:51:58;;;;;;;0.10;0.10;;;;;;;10.78;100.00;101184.81;4999390;28;20040;-73
2022/10/16 06:54:23;;;;;;;0.10;0.10;;;;;;;10.91;100.00;101211.63;5006089;28;20109;-73
2022/10/16 06:56:50;;;;;;;0.10;0.10;;;;;;;10.88;100.00;101200.25;4995152;28;20025;-72
2022/10/16 06:59:16;;;;;;;0.10;0.10;;;;;;;11.19;100.00;101219.50;5008181;28;20428;-72
2022/10/16 07:01:41;;;;;;;0.10;0.10;;;;;;;11.30;100.00;101214.16;5004281;28;20034;-73
2022/10/16 07:04:06;;;;;;;0.10;0.10;;;;;;;11.61;100.00;101245.94;5005143;28;20417;-72
2022/10/16 07:06:33;;;;;;;0.10;0.10;;;;;;;11.55;100.00;101245.44;5007213;28;20084;-71
2022/10/16 07:09:01;;;;;;;0.10;0.10;;;;;;;11.69;100.00;101244.41;5004830;28;20033;-72
2022/10/16 07:11:26;;;;;;;0.10;0.10;;;;;;;11.79;100.00;101240.97;5001094;28;20140;-74
2022/10/16 07:13:52;;;;;;;0.00;0.00;;;;;;;11.81;100.00;101234.53;5004000;28;20048;-73
2022/10/16 07:16:19;;;;;;;0.10;0.10;;;;;;;12.11;100.00;101260.06;5001854;28;20539;-71
2022/10/16 07:18:46;;;;;;;0.10;0.10;;;;;;;12.10;100.00;101247.59;5008300;28;20040;-72
2022/10/16 07:21:14;;;;;;;0.10;0.10;;;;;;;12.35;100.00;101269.03;5004990;28;20040;-72
2022/10/16 07:23:39;;;;;;;0.10;0.10;;;;;;;12.25;100.00;101252.75;5007820;28;20064;-73
2022/10/16 07:26:05;;;;;;;0.10;0.10;;;;;;;12.49;100.00;101273.31;4990981;28;20033;-74
2022/10/16 07:28:31;;;;;;;0.00;0.00;;;;;;;12.57;100.00;101295.13;4991602;28;20354;-74
2022/10/16 07:31:00;;;;;;;0.00;0.00;;;;;;;12.70;100.00;101292.31;4982840;28;20026;-73
2022/10/16 07:33:26;;;;;;;0.10;0.10;;;;;;;12.62;100.00;101278.59;4992301;28;20413;-71
2022/10/16 07:35:54;;;;;;;0.10;0.10;;;;;;;12.81;100.00;101264.50;5003522;28;20061;-74
2022/10/16 07:38:20;;;;;;;0.00;0.00;;;;;;;12.97;100.00;101302.72;5017588;28;20531;-75
2022/10/16 07:40:45;;;;;;;0.10;0.10;;;;;;;13.00;100.00;101307.84;5003590;28;20030;-73
2022/10/16 07:43:11;;;;;;;0.10;0.10;;;;;;;13.11;100.00;101314.22;5003460;28;20084;-71
2022/10/16 07:45:36;;;;;;;0.10;0.10;;;;;;;12.97;100.00;101285.69;5010376;28;20167;-73
2022/10/16 07:48:01;;;;;;;0.00;0.00;;;;;;;13.05;100.00;101297.56;5006689;28;20657;-74
2022/10/16 07:50:27;;;;;;;0.00;0.00;;;;;;;13.06;100.00;101284.94;4985248;28;20124;-74
2022/10/16 07:52:52;;;;;;;0.22;0.10;;;;;;;13.07;100.00;101301.97;4986117;28;20121;-73
2022/10/16 07:55:17;;;;;;;0.10;0.10;;;;;;;13.43;100.00;101316.16;5001230;28;20036;-74
2022/10/16 07:57:43;;;;;;;0.10;0.10;;;;;;;13.09;100.00;101291.91;5000311;28;20025;-74
2022/10/16 08:00:13;;;;;;;0.00;0.00;;;;;;;13.23;100.00;101310.53;4995923;28;20515;-73
2022/10/16 08:02:39;;;;;;;0.10;0.10;;;;;;;13.44;100.00;101328.66;4996995;28;20030;-74
2022/10/16 08:05:05;;;;;;;0.00;0.00;;;;;;;13.60;100.00;101334.50;5001049;28;20092;-74
2022/10/16 08:07:30;;;;;;;0.08;0.08;;;;;;;13.68;100.00;101336.53;5003003;28;20037;-72
2022/10/16 08:09:58;;;;;;;0.05;0.05;;;;;;;13.46;100.00;101305.97;4998835;28;20117;-73
2022/10/16 08:12:23;;;;;;;0.10;0.10;;;;;;;13.65;100.00;101345.75;5003475;28;20125;-73
2022/10/16 08:14:48;;;;;;;0.00;0.00;;;;;;;13.67;100.00;101336.69;5004178;28;20033;-73
2022/10/16 08:17:14;;;;;;;0.00;0.00;;;;;;;13.79;100.00;101343.75;5006010;28;20392;-71
2022/10/16 08:19:39;;;;;;;0.00;0.00;;;;;;;13.88;100.00;101351.06;5001571;28;20068;-73
2022/10/16 08:22:05;;;;;;;0.10;0.10;;;;;;;13.82;100.00;101345.34;5002483;28;21513;-73
2022/10/16 08:24:31;;;;;;;0.00;0.00;;;;;;;13.93;100.00;101331.78;4996665;28;20041;-71
2022/10/16 08:26:56;;;;;;;0.10;0.10;;;;;;;14.16;100.00;101362.25;4997199;28;20030;-72
2022/10/16 08:29:21;;;;;;;0.00;0.00;;;;;;;14.16;100.00;101377.59;4996415;28;20096;-72
2022/10/16 08:31:46;;;;;;;0.08;0.08;;;;;;;14.29;100.00;101370.16;4996676;28;20543;-70
2022/10/16 08:34:12;;;;;;;0.00;0.00;;;;;;;14.47;100.00;101356.06;5016572;28;20029;-71
2022/10/16 08:36:38;;;;;;;0.00;0.00;;;;;;;14.15;100.00;101341.63;5001969;28;20072;-72
2022/10/16 08:39:03;;;;;;;0.00;0.00;;;;;;;14.40;100.00;101377.34;5000185;28;20025;-72
2022/10/16 08:41:49;;;;;;;0.00;0.00;;;;;;;14.74;100.00;101398.78;4977876;28;20533;-73
2022/10/16 08:44:29;;;;;;;0.03;0.03;;;;;;;14.70;100.00;101387.38;4995130;28;20496;-72
2022/10/16 08:47:06;;;;;;;0.00;0.00;;;;;;;14.60;100.00;101372.06;5019112;28;20041;-69
2022/10/16 08:49:31;;;;;;;0.00;0.00;;;;;;;14.68;100.00;101374.97;4998650;28;20027;-72
2022/10/16 08:51:57;;;;;;;0.10;0.10;;;;;;;14.91;100.00;101391.91;5015309;28;20447;-71
2022/10/16 08:54:34;;;;;;;0.10;0.10;;;;;;;15.10;100.00;101414.63;5016569;28;20033;-70
2022/10/16 08:57:09;;;;;;;0.00;0.00;;;;;;;15.43;100.00;101427.00;4996429;28;20033;-70
2022/10/16 08:59:34;;;;;;;0.00;0.00;;;;;;;15.30;100.00;101420.97;4996847;28;20029;-70
2022/10/16 09:02:01;;;;;;;0.00;0.00;;;;;;;15.12;100.00;101397.25;4995701;28;20233;-71
2022/10/16 09:04:44;;;;;;;0.10;0.10;;;;;;;15.64;100.00;101420.63;4996053;28;20029;-72
2022/10/16 09:07:24;;;;;;;0.00;0.00;;;;;;;15.73;100.00;101427.94;4991983;28;20049;-72
2022/10/16 09:10:13;;;;;;;0.00;0.00;;;;;;;15.85;100.00;101425.97;5002554;28;20435;-71
2022/10/16 09:12:51;;;;;;;0.00;0.00;;;;;;;15.83;100.00;101403.59;4999463;28;20041;-71
2022/10/16 09:15:34;;;;;;;0.00;0.00;;;;;;;15.99;99.75;101419.31;5003807;28;20029;-75
2022/10/16 09:18:07;;;;;;;0.10;0.10;;;;;;;16.35;98.37;101429.59;4999231;28;20041;-76
2022/10/16 09:20:57;;;;;;;0.10;0.10;;;;;;;15.66;99.25;101412.41;5015554;28;20042;-76
2022/10/16 09:23:26;;;;;;;0.10;0.10;;;;;;;15.55;100.00;101448.56;4997330;28;20104;-72
2022/10/16 09:25:52;;;;;;;0.00;0.00;;;;;;;15.71;99.63;101427.22;4981283;28;20258;-73
2022/10/16 09:28:18;;;;;;;0.10;0.10;;;;;;;15.98;100.00;101451.97;4980938;28;20030;-75
2022/10/16 09:30:45;;;;;;;0.00;0.00;;;;;;;16.29;97.86;101454.53;4997570;28;20034;-78
2022/10/16 09:33:12;;;;;;;0.10;0.10;;;;;;;16.21;97.47;101452.53;4981539;28;20041;-75
2022/10/16 09:35:40;;;;;;;0.05;0.05;;;;;;;15.95;97.89;101436.84;4997293;28;20400;-69
2022/10/16 09:38:07;;;;;;;0.10;0.10;;;;;;;15.94;100.00;101437.00;5000568;28;20026;-74
2022/10/16 09:40:37;;;;;;;0.10;0.10;;;;;;;16.53;96.31;101450.56;5002756;28;20069;-72
2022/10/16 09:43:22;;;;;;;0.05;0.05;;;;;;;16.44;92.53;101460.38;4986964;28;20033;-74
2022/10/16 09:45:57;;;;;;;0.10;0.10;;;;;;;16.80;93.98;101457.94;4986839;28;20124;-71
2022/10/16 09:48:25;;;;;;;0.00;0.00;;;;;;;17.07;91.32;101467.19;5002842;28;20085;-70
2022/10/16 09:50:58;;;;;;;0.00;0.00;;;;;;;17.07;91.07;101450.91;4999178;28;20117;-68
2022/10/16 09:53:24;;;;;;;0.00;0.00;;;;;;;17.16;89.37;101435.59;4985530;28;20064;-69
2022/10/16 09:55:50;;;;;;;0.10;0.10;;;;;;;17.02;88.13;101454.06;4986294;28;20026;-70
2022/10/16 09:58:16;;;;;;;0.10;0.10;;;;;;;17.60;85.61;101467.56;4997756;28;20468;-70
2022/10/16 10:00:42;;;;;;;0.10;0.10;;;;;;;17.75;86.43;101447.03;5001048;28;20041;-71
2022/10/16 10:03:11;;;;;;;0.00;0.00;;;;;;;18.16;84.85;101451.22;5004448;28;20033;-72
2022/10/16 10:05:39;;;;;;;0.00;0.00;;;;;;;18.32;85.29;101448.66;5021173;28;20395;-71
2022/10/16 10:08:05;;;;;;;0.08;0.08;;;;;;;18.46;78.61;101462.72;5000913;28;20066;-70
2022/10/16 10:10:39;;;;;;;0.10;0.10;;;;;;;18.51;82.14;101449.53;4999024;28;20121;-70
2022/10/16 10:13:04;;;;;;;0.10;0.10;;;;;;;18.37;82.27;101464.53;4980642;28;20045;-70
2022/10/16 10:15:34;;;;;;;0.10;0.10;;;;;;;18.53;83.42;101461.09;4999457;28;20038;-70
2022/10/16 10:18:02;;;;;;;0.00;0.00;;;;;;;18.12;81.93;101456.13;4999386;28;20033;-71
2022/10/16 10:20:34;;;;;;;0.03;0.03;;;;;;;18.42;82.24;101478.47;5001054;28;20155;-71
2022/10/16 10:23:01;;;;;;;0.05;0.05;;;;;;;19.09;80.38;101460.81;4995975;28;20041;-70
2022/10/16 10:25:51;;;;;;;0.00;0.00;;;;;;;18.93;78.93;101477.91;4993256;28;20045;-70
2022/10/16 10:28:41;;;;;;;0.10;0.10;;;;;;;19.30;77.04;101487.66;4997594;28;20535;-71
2022/10/16 10:31:14;;;;;;;0.10;0.10;;;;;;;19.73;75.00;101458.56;5012059;28;20468;-69
2022/10/16 10:34:11;;;;;;;0.10;0.10;;;;;;;21.10;73.25;101492.84;5007949;28;20033;-70
2022/10/16 10:36:38;;;;;;;0.00;0.00;;;;;;;21.02;64.46;101484.69;5011763;28;20030;-70
2022/10/16 10:39:09;;;;;;;0.00;0.00;;;;;;;20.41;70.00;101477.66;4993409;28;20084;-70
2022/10/16 10:41:56;;;;;;;0.00;0.00;;;;;;;20.21;66.69;101510.69;4996979;28;20041;-71
2022/10/16 10:44:41;;;;;;;0.10;0.10;;;;;;;20.43;66.72;101482.97;4992603;28;20037;-71
2022/10/16 10:47:26;;;;;;;0.10;0.10;;;;;;;20.29;64.14;101498.94;4995349;28;20033;-70
2022/10/16 10:50:07;;;;;;;0.00;0.00;;;;;;;20.07;65.52;101501.28;5000064;28;20442;-71
2022/10/16 10:52:57;;;;;;;0.00;0.00;;;;;;;20.84;63.48;101499.34;5014930;28;20285;-72
2022/10/16 10:55:38;;;;;;;0.00;0.00;;;;;;;19.53;66.80;101498.88;5011071;28;20302;-71
2022/10/16 10:58:41;;;;;;;0.03;0.03;;;;;;;19.66;67.47;101503.00;4997656;28;20048;-70
2022/10/16 11:01:09;;;;;;;0.10;0.10;;;;;;;20.65;65.01;101504.09;4997470;28;20070;-69
2022/10/16 11:04:00;;;;;;;0.10;0.10;;;;;;;21.40;60.19;101502.16;5001991;28;20018;-70
2022/10/16 11:06:30;;;;;;;0.03;0.03;;;;;;;21.76;60.46;101508.19;4999471;28;20037;-71
2022/10/16 11:09:24;;;;;;;0.10;0.10;;;;;;;22.86;53.77;101512.63;5019649;28;20365;-70
2022/10/16 11:12:07;;;;;;;0.00;0.00;;;;;;;23.64;51.82;101508.75;4999430;28;20026;-70
2022/10/16 11:14:47;;;;;;;0.10;0.10;;;;;;;23.57;52.45;101508.69;5001164;28;20068;-72
2022/10/16 11:17:18;;;;;;;0.00;0.00;;;;;;;22.94;52.12;101499.91;5015884;28;20042;-70
2022/10/16 11:19:50;;;;;;;0.10;0.10;;;;;;;23.25;53.45;101504.44;4999029;28;20491;-70
2022/10/16 11:22:37;;;;;;;0.00;0.00;;;;;;;22.69;50.64;101519.28;4997551;28;20029;-71
2022/10/16 11:25:13;;;;;;;0.00;0.00;;;;;;;22.08;54.70;101515.41;5014973;28;20034;-71
2022/10/16 11:27:54;;;;;;;0.00;0.00;;;;;;;21.98;55.68;101512.88;4997129;28;20033;-69